»·PEaware :: NEH5516 KOAK-KRNO

NEH5516 :: KOAK-KRNO

FLIGHT INFORMATION

Flight Status: Arrived
Operator: Unknown
More flights by this operator :: More flights under this callsign
Pilot: Calvin W. (232)
Aircraft: DEHAVILLAND DH-6 TWIN OTTER
(DHC6)
More flights by this aircraft type
Origin: KOAK Metro Oakland Intl
United States
Destination: KRNO Reno/Tahoe Intl
United States
More flights between these airports :: More routes between these airports
Route: +HUSSH2 ORRCA SPOON
File this flight plan on PilotEdge
Remarks: I DO NOT HAVE AND FMS / FMC, BUT i WILL TRY AND FOLLOW SIDS / STARS IF APPLICABLE....RMK / SIMBRIEF
Altitude:
(Current/Filed)
9,000ft
Speed:
(Current/Filed)
160kts
Departed: 12-Jan-20 09:21 PM
Arrived: 12-Jan-20 10:27 PM
Distance/Time
Traveled:
157nm/1:06
Distance/Time
To Go:
Arrived

Flight Plot

Page will automatically refresh every two minutes.

Flight plan parsing failed; only flown route is shown


Map Options




Map Legend


Flown Route
Filed Route
Departure Airport
Arrival Airport
Navaid (VOR, NDB)
Fix

Horizontal Profiles

Position Reports

Time Latitude Longitude Heading Altitude Ground
Speed
12-Jan-20 20:35 37.729245 -122.211554 14 10ft 0kts
12-Jan-20 20:36 37.729245 -122.211554 14 10ft 0kts
12-Jan-20 20:37 37.729245 -122.211554 14 10ft 0kts
12-Jan-20 20:38 37.729245 -122.211554 14 10ft 0kts
12-Jan-20 20:39 37.729245 -122.211554 14 10ft 0kts
12-Jan-20 20:40 37.729245 -122.211554 14 10ft 0kts
12-Jan-20 20:42 37.729245 -122.211554 14 10ft 0kts
12-Jan-20 20:43 37.729245 -122.211554 14 10ft 0kts
12-Jan-20 20:44 37.729245 -122.211554 14 10ft 0kts
12-Jan-20 20:45 37.729245 -122.211554 14 10ft 0kts
12-Jan-20 20:46 37.729245 -122.211554 14 10ft 0kts
12-Jan-20 20:47 37.729245 -122.211554 14 10ft 0kts
12-Jan-20 20:48 37.729245 -122.211554 14 10ft 0kts
12-Jan-20 20:49 37.729245 -122.211554 14 10ft 0kts
12-Jan-20 20:50 37.729245 -122.211554 14 10ft 0kts
12-Jan-20 20:51 37.729245 -122.211554 14 10ft 0kts
12-Jan-20 20:52 37.729245 -122.211554 14 10ft 0kts
12-Jan-20 20:53 37.729245 -122.211554 14 10ft 0kts
12-Jan-20 20:54 37.729245 -122.211554 14 10ft 0kts
12-Jan-20 20:55 37.729245 -122.211554 14 10ft 0kts
12-Jan-20 20:56 37.729245 -122.211554 14 10ft 0kts
12-Jan-20 20:57 37.729245 -122.211554 14 10ft 0kts
12-Jan-20 20:58 37.729245 -122.211554 14 10ft 0kts
12-Jan-20 20:59 37.729245 -122.211554 14 10ft 0kts
12-Jan-20 21:00 37.729245 -122.211554 14 10ft 0kts
12-Jan-20 21:00 37.729185 -122.211380 163 10ft 8kts
12-Jan-20 21:02 37.725997 -122.205437 114 10ft 23kts
12-Jan-20 21:03 37.725852 -122.205026 112 10ft 0kts
12-Jan-20 21:04 37.725832 -122.204967 115 10ft 3kts
12-Jan-20 21:05 37.721667 -122.206883 221 10ft 17kts
12-Jan-20 21:05 37.721331 -122.209575 256 10ft 6kts
12-Jan-20 21:07 37.720598 -122.212560 224 10ft 0kts
12-Jan-20 21:07 37.720256 -122.212972 222 10ft 4kts
12-Jan-20 21:08 37.718852 -122.214680 226 10ft 13kts
12-Jan-20 21:09 37.717929 -122.215935 226 10ft 0kts
12-Jan-20 21:10 37.715913 -122.218449 225 10ft 15kts
12-Jan-20 21:11 37.713390 -122.221585 224 10ft 16kts
12-Jan-20 21:12 37.711232 -122.224230 221 10ft 17kts
12-Jan-20 21:13 37.708193 -122.220543 129 10ft 23kts
12-Jan-20 21:14 37.706314 -122.217683 132 10ft 15kts
12-Jan-20 21:15 37.702652 -122.213680 176 10ft 15kts
12-Jan-20 21:16 37.702086 -122.214016 219 10ft 0kts
12-Jan-20 21:17 37.702086 -122.214016 219 10ft 0kts
12-Jan-20 21:18 37.702086 -122.214016 219 10ft 0kts
12-Jan-20 21:19 37.701790 -122.214718 304 10ft 0kts
12-Jan-20 21:20 37.708601 -122.224613 308 103ft 108kts
12-Jan-20 21:21 37.729971 -122.254622 289 1428ft 123kts
12-Jan-20 21:22 37.739131 -122.296072 289 2973ft 119kts
12-Jan-20 21:23 37.748044 -122.332601 291 4855ft 104kts
12-Jan-20 21:24 37.772478 -122.350530 337 6544ft 115kts
12-Jan-20 21:25 37.804855 -122.366551 337 7731ft 130kts
12-Jan-20 21:26 37.837807 -122.383097 338 8733ft 125kts
12-Jan-20 21:27 37.876250 -122.386004 355 9010ft 156kts
12-Jan-20 21:28 37.920684 -122.384401 357 9000ft 160kts
12-Jan-20 21:29 37.959197 -122.356753 43 9006ft 182kts
12-Jan-20 21:30 37.989352 -122.304763 45 8991ft 180kts
12-Jan-20 21:31 38.019709 -122.254433 44 8989ft 180kts
12-Jan-20 21:32 38.050794 -122.203453 44 8981ft 183kts
12-Jan-20 21:33 38.081977 -122.152079 44 8982ft 184kts
12-Jan-20 21:34 38.113321 -122.100508 44 8984ft 185kts
12-Jan-20 21:35 38.144754 -122.048700 44 8983ft 185kts
12-Jan-20 21:36 38.176527 -121.996412 44 8973ft 188kts
12-Jan-20 21:37 38.208512 -121.943427 44 8972ft 189kts
12-Jan-20 21:38 38.240423 -121.890585 44 8999ft 188kts
12-Jan-20 21:39 38.272395 -121.837461 44 9001ft 189kts
12-Jan-20 21:40 38.304178 -121.784339 46 9000ft 190kts
12-Jan-20 21:41 38.332202 -121.726576 46 9004ft 190kts
12-Jan-20 21:42 38.360715 -121.669178 51 8997ft 192kts
12-Jan-20 21:43 38.388473 -121.610924 51 8997ft 191kts
12-Jan-20 21:44 38.418067 -121.554837 46 9007ft 189kts
12-Jan-20 21:45 38.436881 -121.490489 56 9013ft 192kts
12-Jan-20 21:46 38.463453 -121.431384 54 9004ft 193kts
12-Jan-20 21:47 38.488730 -121.370264 56 8998ft 195kts
12-Jan-20 21:48 38.503607 -121.333489 56 9002ft 195kts
12-Jan-20 21:49 38.518478 -121.284980 57 8998ft 197kts
12-Jan-20 21:50 38.543628 -121.222543 55 8995ft 198kts
12-Jan-20 21:51 38.569274 -121.160629 53 9000ft 196kts
12-Jan-20 21:52 38.596029 -121.099311 53 9003ft 197kts
12-Jan-20 21:53 38.622771 -121.038409 53 8999ft 197kts
12-Jan-20 21:54 38.649764 -120.977494 53 8997ft 197kts
12-Jan-20 21:55 38.671625 -120.927785 53 8990ft 197kts
12-Jan-20 21:56 38.690760 -120.861240 76 8996ft 205kts
12-Jan-20 21:57 38.698059 -120.788322 77 8986ft 206kts
12-Jan-20 21:58 38.705964 -120.715519 76 8982ft 206kts
12-Jan-20 21:59 38.715135 -120.643281 74 8995ft 205kts
12-Jan-20 22:00 38.725723 -120.571097 73 9005ft 206kts
12-Jan-20 22:01 38.736681 -120.504512 68 9937ft 184kts
12-Jan-20 22:02 38.748839 -120.441014 61 10940ft 182kts
12-Jan-20 22:03 38.770681 -120.384301 42 11975ft 174kts
12-Jan-20 22:04 38.798461 -120.332678 39 12859ft 181kts
12-Jan-20 22:05 38.829850 -120.276358 41 12909ft 202kts
12-Jan-20 22:06 38.862305 -120.217165 42 12895ft 203kts
12-Jan-20 22:07 38.894951 -120.157924 41 12875ft 202kts
12-Jan-20 22:08 38.927454 -120.098931 42 12875ft 202kts
12-Jan-20 22:09 38.959928 -120.039786 42 12866ft 202kts
12-Jan-20 22:10 38.992399 -119.980735 42 12877ft 201kts
12-Jan-20 22:11 39.024319 -119.922419 41 13007ft 201kts
12-Jan-20 22:12 39.058661 -119.859801 44 12124ft 222kts
12-Jan-20 22:13 39.093978 -119.794842 44 11190ft 207kts
12-Jan-20 22:14 39.125310 -119.780133 295 10961ft 100kts
12-Jan-20 22:15 39.137889 -119.823953 301 10200ft 155kts
12-Jan-20 22:16 39.177862 -119.831808 34 9234ft 192kts
12-Jan-20 22:17 39.206498 -119.774273 54 8964ft 185kts
12-Jan-20 22:18 39.241644 -119.744072 335 8979ft 149kts
12-Jan-20 22:19 39.277438 -119.765469 348 8965ft 139kts
12-Jan-20 22:20 39.316199 -119.764688 354 8962ft 139kts
12-Jan-20 22:21 39.355216 -119.761556 354 8909ft 142kts
12-Jan-20 22:22 39.395513 -119.762427 349 8408ft 145kts
12-Jan-20 22:23 39.433495 -119.765940 349 7662ft 124kts
12-Jan-20 22:24 39.465705 -119.768099 347 5476ft 79kts
12-Jan-20 22:25 39.482984 -119.769448 352 4499ft 55kts
12-Jan-20 22:26 39.492848 -119.769920 276 4419ft 6kts
12-Jan-20 22:27 39.494189 -119.770693 359 4420ft 16kts
12-Jan-20 22:28 39.498970 -119.770659 357 4420ft 17kts
12-Jan-20 22:29 39.502391 -119.771487 356 4420ft 14kts
12-Jan-20 22:30 39.505231 -119.772507 322 4419ft 0kts
12-Jan-20 22:31 39.505231 -119.772507 322 4419ft 0kts
12-Jan-20 22:32 39.505231 -119.772507 322 4419ft 0kts
12-Jan-20 22:33 39.505231 -119.772507 322 4419ft 0kts
12-Jan-20 22:34 39.505231 -119.772507 322 4419ft 0kts
12-Jan-20 22:35 39.505231 -119.772507 322 4419ft 0kts
12-Jan-20 22:36 39.505231 -119.772507 322 4419ft 0kts
12-Jan-20 22:37 39.505231 -119.772507 322 4419ft 0kts
12-Jan-20 22:38 39.505231 -119.772507 322 4419ft 0kts

Navigation Log

Ident Type
Flight plan parsing failed, navigation log unavailable